Time;durP1;ratioP1;P1;durP2;ratioP2;P2;SDS_P1;SDS_P2;PMS_P1;PMS_P2;Temp;Humidity;BMP_temperature;BMP_pressure;BME280_temperature;BME280_humidity;BME280_pressure;Samples;Min_cycle;Max_cycle;Signal;HPM_P1;HPM_P2
2022/07/11 00:00:42;;;;;;;;;;;27.60;95.90;;;;;;5124063;28;19904;-55
2022/07/11 00:03:08;;;;;;;;;;;27.60;96.00;;;;;;5127397;27;24097;-57
2022/07/11 00:05:34;;;;;;;;;;;27.60;96.00;;;;;;5123917;28;19916;-54
2022/07/11 00:08:00;;;;;;;;;;;27.60;95.90;;;;;;5123508;28;19965;-59
2022/07/11 00:10:26;;;;;;;;;;;27.50;95.90;;;;;;5124051;28;24070;-53
2022/07/11 00:12:52;;;;;;;;;;;27.50;95.90;;;;;;5124923;28;19934;-54
2022/07/11 00:15:19;;;;;;;;;;;27.50;95.90;;;;;;5125068;28;19907;-53
2022/07/11 00:17:45;;;;;;;;;;;27.50;95.90;;;;;;5124941;28;19907;-56
2022/07/11 00:20:11;;;;;;;;;;;27.50;95.90;;;;;;5125300;28;20229;-55
2022/07/11 00:22:37;;;;;;;;;;;27.50;95.90;;;;;;5123443;28;19900;-58
2022/07/11 00:25:03;;;;;;;;;;;27.40;96.00;;;;;;5120848;28;20089;-61
2022/07/11 00:27:29;;;;;;;;;;;27.40;96.20;;;;;;5123080;28;20257;-56
2022/07/11 00:29:55;;;;;;;;;;;27.30;96.20;;;;;;5122915;28;19908;-58
2022/07/11 00:32:22;;;;;;;;;;;27.30;96.20;;;;;;5123196;28;19918;-60
2022/07/11 00:34:48;;;;;;;;;;;27.30;96.20;;;;;;5123192;28;19951;-63
2022/07/11 00:37:14;;;;;;;;;;;27.30;96.10;;;;;;5123158;28;20122;-59
2022/07/11 00:39:40;;;;;;;;;;;27.30;96.10;;;;;;5125823;28;19961;-63
2022/07/11 00:42:06;;;;;;;;;;;27.40;96.10;;;;;;5107826;28;19945;-58
2022/07/11 00:44:32;;;;;;;;;;;27.40;96.00;;;;;;5124940;28;19978;-60
2022/07/11 00:46:58;;;;;;;;;;;27.40;95.90;;;;;;5121855;28;19911;-57
2022/07/11 00:49:25;;;;;;;;;;;27.40;95.90;;;;;;5122040;28;19904;-59
2022/07/11 00:51:51;;;;;;;;;;;27.40;95.90;;;;;;5122185;28;24095;-60
2022/07/11 00:54:19;;;;;;;;;;;27.40;95.90;;;;;;5122224;28;19910;-62
2022/07/11 00:56:45;;;;;;;;;;;27.40;95.90;;;;;;5122395;28;20024;-64
2022/07/11 00:59:12;;;;;;;;;;;27.40;95.80;;;;;;5122465;28;20234;-57
2022/07/11 01:01:38;;;;;;;;;;;27.40;95.80;;;;;;5124418;28;20091;-57
2022/07/11 01:04:05;;;;;;;;;;;27.40;95.80;;;;;;5125279;28;20065;-57
2022/07/11 01:06:31;;;;;;;;;;;27.40;95.70;;;;;;5125033;28;20123;-57
2022/07/11 01:08:57;;;;;;;;;;;27.40;95.80;;;;;;5125395;28;24099;-56
2022/07/11 01:11:23;;;;;;;;;;;27.40;95.60;;;;;;5125295;28;24054;-62
2022/07/11 01:13:50;;;;;;;;;;;27.40;95.50;;;;;;5125635;28;19904;-56
2022/07/11 01:16:18;;;;;;;;;;;27.30;95.20;;;;;;5124599;28;19911;-57
2022/07/11 01:18:50;;;;;;;;;;;27.40;95.10;;;;;;5106889;28;20143;-61
2022/07/11 01:21:21;;;;;;;;;;;27.30;95.00;;;;;;5090211;28;20023;-60
2022/07/11 01:23:48;;;;;;;;;;;27.30;95.10;;;;;;5125051;28;19957;-57
2022/07/11 01:26:16;;;;;;;;;;;27.30;94.80;;;;;;5124461;28;19904;-55
2022/07/11 01:28:42;;;;;;;;;;;27.30;94.70;;;;;;5125437;28;19967;-57
2022/07/11 01:31:09;;;;;;;;;;;27.30;94.70;;;;;;5124322;28;19904;-56
2022/07/11 01:33:35;;;;;;;;;;;27.30;94.70;;;;;;5124677;28;19966;-59
2022/07/11 01:36:04;;;;;;;;;;;27.30;94.60;;;;;;5124490;28;20126;-60
2022/07/11 01:38:30;;;;;;;;;;;27.30;94.50;;;;;;5124434;28;19900;-56
2022/07/11 01:40:56;;;;;;;;;;;27.20;94.50;;;;;;5124729;28;19907;-60
2022/07/11 01:43:22;;;;;;;;;;;27.20;94.50;;;;;;5124575;28;20176;-57
2022/07/11 01:45:52;;;;;;;;;;;27.20;94.50;;;;;;5124764;28;19907;-57
2022/07/11 01:48:18;;;;;;;;;;;27.20;94.80;;;;;;5124403;28;20052;-59
2022/07/11 01:50:45;;;;;;;;;;;27.20;94.50;;;;;;5124479;28;19899;-59
2022/07/11 01:53:11;;;;;;;;;;;27.20;94.50;;;;;;5124217;28;19900;-57
2022/07/11 01:55:37;;;;;;;;;;;27.10;94.40;;;;;;5124482;28;24089;-57
2022/07/11 01:58:03;;;;;;;;;;;27.20;94.40;;;;;;5128170;28;19907;-59
2022/07/11 02:00:30;;;;;;;;;;;27.10;94.40;;;;;;5128940;28;19990;-56
2022/07/11 02:02:56;;;;;;;;;;;27.10;94.50;;;;;;5128405;28;25135;-57
2022/07/11 02:05:22;;;;;;;;;;;27.10;94.50;;;;;;5129141;28;19915;-58
2022/07/11 02:10:33;;;;;;;;;;;27.10;94.40;;;;;;5128883;28;19981;-58
2022/07/11 02:13:00;;;;;;;;;;;27.10;94.40;;;;;;5128203;28;19900;-57
2022/07/11 02:15:29;;;;;;;;;;;27.00;94.30;;;;;;5128932;28;19915;-57
2022/07/11 02:17:56;;;;;;;;;;;27.10;94.40;;;;;;5128379;28;19941;-57
2022/07/11 02:20:23;;;;;;;;;;;27.00;94.20;;;;;;5128429;28;19919;-62
2022/07/11 02:22:49;;;;;;;;;;;27.00;94.20;;;;;;5128578;28;19967;-59
2022/07/11 02:25:16;;;;;;;;;;;27.00;94.20;;;;;;5128772;28;24102;-58
2022/07/11 02:27:42;;;;;;;;;;;27.00;94.00;;;;;;5128229;28;19900;-56
2022/07/11 02:30:08;;;;;;;;;;;27.00;93.90;;;;;;5128269;28;20237;-57
2022/07/11 02:32:35;;;;;;;;;;;27.00;93.90;;;;;;5128138;28;24077;-65
2022/07/11 02:35:01;;;;;;;;;;;27.00;93.80;;;;;;5127573;28;24077;-57
2022/07/11 02:37:27;;;;;;;;;;;27.00;93.80;;;;;;5127461;28;19900;-57
2022/07/11 02:39:53;;;;;;;;;;;27.00;93.70;;;;;;5127886;28;24072;-60
2022/07/11 02:42:19;;;;;;;;;;;27.00;93.80;;;;;;5127424;28;19909;-59
2022/07/11 02:44:46;;;;;;;;;;;27.00;93.70;;;;;;5128102;28;20151;-61
2022/07/11 02:47:13;;;;;;;;;;;27.00;93.60;;;;;;5127894;28;20125;-59
2022/07/11 02:49:40;;;;;;;;;;;27.00;93.60;;;;;;5127961;28;19914;-60
2022/07/11 02:52:06;;;;;;;;;;;26.90;93.50;;;;;;5127850;28;20036;-55
2022/07/11 02:54:33;;;;;;;;;;;26.90;93.50;;;;;;5127601;28;19908;-57
2022/07/11 02:56:59;;;;;;;;;;;27.00;93.60;;;;;;5127729;28;19900;-60
2022/07/11 02:59:25;;;;;;;;;;;26.90;93.50;;;;;;5127659;28;19911;-57
2022/07/11 03:01:51;;;;;;;;;;;26.90;93.30;;;;;;5127314;28;19908;-60
2022/07/11 03:04:17;;;;;;;;;;;26.90;93.20;;;;;;5127481;28;20102;-65
2022/07/11 03:06:44;;;;;;;;;;;26.90;93.10;;;;;;5126921;28;25074;-65
2022/07/11 03:09:10;;;;;;;;;;;26.90;93.00;;;;;;5126427;28;20286;-65
2022/07/11 03:11:36;;;;;;;;;;;26.90;92.90;;;;;;5127509;28;24083;-64
2022/07/11 03:14:02;;;;;;;;;;;26.90;92.80;;;;;;5127652;28;19975;-59
2022/07/11 03:16:29;;;;;;;;;;;26.90;92.90;;;;;;5126445;28;19931;-56
2022/07/11 03:18:56;;;;;;;;;;;26.90;92.90;;;;;;5126814;28;19912;-55
2022/07/11 03:21:22;;;;;;;;;;;27.00;92.90;;;;;;5120263;28;19911;-57
2022/07/11 03:23:51;;;;;;;;;;;26.90;92.80;;;;;;5125429;28;19904;-59
2022/07/11 03:26:17;;;;;;;;;;;26.90;92.90;;;;;;5124754;28;24081;-57
2022/07/11 03:28:44;;;;;;;;;;;26.90;93.00;;;;;;5118589;28;19907;-56
2022/07/11 03:31:10;;;;;;;;;;;26.90;93.00;;;;;;5122870;28;19904;-55
2022/07/11 03:33:37;;;;;;;;;;;26.90;92.90;;;;;;5125617;28;19967;-55
2022/07/11 03:36:03;;;;;;;;;;;26.90;92.70;;;;;;5125882;28;19908;-59
2022/07/11 03:38:29;;;;;;;;;;;26.90;92.70;;;;;;5125972;28;19900;-53
2022/07/11 03:40:56;;;;;;;;;;;26.90;92.70;;;;;;5125937;28;19900;-55
2022/07/11 03:43:25;;;;;;;;;;;26.90;92.70;;;;;;5125905;28;19906;-56
2022/07/11 03:45:51;;;;;;;;;;;26.80;92.70;;;;;;5125255;28;24055;-52
2022/07/11 03:48:17;;;;;;;;;;;26.80;92.90;;;;;;5125955;28;20092;-56
2022/07/11 03:50:43;;;;;;;;;;;26.80;93.20;;;;;;5125676;28;20188;-55
2022/07/11 03:53:10;;;;;;;;;;;26.80;93.50;;;;;;5126101;28;20225;-58
2022/07/11 03:55:37;;;;;;;;;;;26.70;93.50;;;;;;5126042;28;25102;-56
2022/07/11 03:58:03;;;;;;;;;;;26.70;93.80;;;;;;5125299;28;19906;-54
2022/07/11 04:00:30;;;;;;;;;;;26.70;94.00;;;;;;5126042;28;19912;-54
2022/07/11 04:02:57;;;;;;;;;;;26.70;94.10;;;;;;5125461;28;19906;-53
2022/07/11 04:05:23;;;;;;;;;;;26.70;94.20;;;;;;5123746;28;19912;-54
2022/07/11 04:07:50;;;;;;;;;;;26.70;94.30;;;;;;5123398;28;19900;-53
2022/07/11 04:10:17;;;;;;;;;;;26.60;94.30;;;;;;5126040;28;19979;-58
2022/07/11 04:12:43;;;;;;;;;;;26.60;94.40;;;;;;5125195;28;24091;-56
2022/07/11 04:15:10;;;;;;;;;;;26.60;94.40;;;;;;5125670;28;19986;-58
2022/07/11 04:17:37;;;;;;;;;;;26.60;94.50;;;;;;5125478;28;19899;-57
2022/07/11 04:20:03;;;;;;;;;;;26.60;94.60;;;;;;5125794;28;20106;-54
2022/07/11 04:22:30;;;;;;;;;;;26.60;94.50;;;;;;5125546;28;19945;-56
2022/07/11 04:24:56;;;;;;;;;;;26.60;94.60;;;;;;5125984;28;20118;-56
2022/07/11 04:27:24;;;;;;;;;;;26.50;94.70;;;;;;5117723;28;19935;-57
2022/07/11 04:29:50;;;;;;;;;;;26.50;94.70;;;;;;5112564;28;19914;-56
2022/07/11 04:32:16;;;;;;;;;;;26.50;94.70;;;;;;5104348;28;19900;-54
2022/07/11 04:34:42;;;;;;;;;;;26.50;94.80;;;;;;5104303;28;19975;-54
2022/07/11 04:37:08;;;;;;;;;;;26.50;94.90;;;;;;5104320;28;20108;-60
2022/07/11 04:39:35;;;;;;;;;;;26.50;94.80;;;;;;5103963;28;19920;-55
2022/07/11 04:42:01;;;;;;;;;;;26.40;94.70;;;;;;5104196;28;19900;-54
2022/07/11 04:44:30;;;;;;;;;;;26.40;94.80;;;;;;5104502;28;19998;-55
2022/07/11 04:46:56;;;;;;;;;;;26.40;94.80;;;;;;5104078;28;19954;-54
2022/07/11 04:49:22;;;;;;;;;;;26.40;94.80;;;;;;5104125;28;19908;-56
2022/07/11 04:51:48;;;;;;;;;;;26.40;94.80;;;;;;5104714;28;19900;-54
2022/07/11 04:54:15;;;;;;;;;;;26.40;94.80;;;;;;5104189;28;19940;-56
2022/07/11 04:56:42;;;;;;;;;;;26.40;94.80;;;;;;5103725;28;19907;-62
2022/07/11 04:59:08;;;;;;;;;;;26.40;94.80;;;;;;5104323;28;19911;-58
2022/07/11 05:01:34;;;;;;;;;;;26.40;94.80;;;;;;5102786;28;19936;-54
2022/07/11 05:04:01;;;;;;;;;;;26.40;94.80;;;;;;5104300;28;20178;-57
2022/07/11 05:06:27;;;;;;;;;;;26.40;94.80;;;;;;5103945;28;19900;-63
2022/07/11 05:08:56;;;;;;;;;;;26.40;94.70;;;;;;5104137;28;19908;-60
2022/07/11 05:11:23;;;;;;;;;;;26.30;94.80;;;;;;5103997;28;19900;-56
2022/07/11 05:13:49;;;;;;;;;;;26.30;94.70;;;;;;5103923;28;19908;-54
2022/07/11 05:16:15;;;;;;;;;;;26.30;94.70;;;;;;5103714;28;20202;-55
2022/07/11 05:18:41;;;;;;;;;;;26.30;94.70;;;;;;5103744;28;19942;-59
2022/07/11 05:21:08;;;;;;;;;;;26.30;94.80;;;;;;5103940;28;19907;-59
2022/07/11 05:23:34;;;;;;;;;;;26.30;94.70;;;;;;5103985;28;19911;-56
2022/07/11 05:26:00;;;;;;;;;;;26.30;94.70;;;;;;5103919;28;19911;-54
2022/07/11 05:28:26;;;;;;;;;;;26.30;94.70;;;;;;5103396;28;19900;-58
2022/07/11 05:30:52;;;;;;;;;;;26.30;94.70;;;;;;5103418;28;19910;-53
2022/07/11 05:33:18;;;;;;;;;;;26.30;94.70;;;;;;5106917;28;19911;-54
2022/07/11 05:35:44;;;;;;;;;;;26.30;94.80;;;;;;5107459;28;19915;-54
2022/07/11 05:38:10;;;;;;;;;;;26.30;94.80;;;;;;5107754;28;20196;-57
2022/07/11 05:40:36;;;;;;;;;;;26.20;94.80;;;;;;5107922;28;19916;-58
2022/07/11 05:43:03;;;;;;;;;;;26.30;94.80;;;;;;5107022;28;20142;-53
2022/07/11 05:45:29;;;;;;;;;;;26.30;94.80;;;;;;5108205;28;20107;-54
2022/07/11 05:47:55;;;;;;;;;;;26.30;94.80;;;;;;5107134;28;24055;-61
2022/07/11 05:50:21;;;;;;;;;;;26.30;94.90;;;;;;5107238;28;19912;-56
2022/07/11 05:52:47;;;;;;;;;;;26.30;94.90;;;;;;5107113;28;19906;-55
2022/07/11 05:55:13;;;;;;;;;;;26.30;94.90;;;;;;5107417;28;24076;-54
2022/07/11 05:57:39;;;;;;;;;;;26.20;94.80;;;;;;5107178;28;24067;-58
2022/07/11 06:00:06;;;;;;;;;;;26.20;94.90;;;;;;5107138;28;20084;-62
2022/07/11 06:02:32;;;;;;;;;;;26.20;95.00;;;;;;5106875;28;24121;-59
2022/07/11 06:04:58;;;;;;;;;;;26.20;95.00;;;;;;5107649;28;24064;-53
2022/07/11 06:10:08;;;;;;;;;;;26.20;94.90;;;;;;5107377;28;19915;-56
2022/07/11 06:12:35;;;;;;;;;;;26.20;94.90;;;;;;5106873;28;19938;-57
2022/07/11 06:15:02;;;;;;;;;;;26.20;94.90;;;;;;5107224;28;19908;-54
2022/07/11 06:17:28;;;;;;;;;;;26.20;94.90;;;;;;5106757;28;19959;-53
2022/07/11 06:19:54;;;;;;;;;;;26.20;95.00;;;;;;5107071;28;20239;-53
2022/07/11 06:22:20;;;;;;;;;;;26.10;95.00;;;;;;5106519;28;24067;-57
2022/07/11 06:24:46;;;;;;;;;;;26.20;95.00;;;;;;5106708;28;19908;-56
2022/07/11 06:27:12;;;;;;;;;;;26.10;95.00;;;;;;5106759;28;19900;-54
2022/07/11 06:29:38;;;;;;;;;;;26.10;95.00;;;;;;5106925;28;24072;-55
2022/07/11 06:32:04;;;;;;;;;;;26.10;95.00;;;;;;5106195;28;19921;-54
2022/07/11 06:34:31;;;;;;;;;;;26.10;95.10;;;;;;5106456;28;19907;-55
2022/07/11 06:36:58;;;;;;;;;;;26.10;95.10;;;;;;5106243;28;19904;-55
2022/07/11 06:39:24;;;;;;;;;;;26.10;95.10;;;;;;5106180;28;19912;-55
2022/07/11 06:41:50;;;;;;;;;;;26.10;95.10;;;;;;5106405;28;24105;-55
2022/07/11 06:44:17;;;;;;;;;;;26.10;95.00;;;;;;5105081;28;19976;-59
2022/07/11 06:46:43;;;;;;;;;;;26.00;95.00;;;;;;5106471;28;24056;-53
2022/07/11 06:49:12;;;;;;;;;;;26.00;94.90;;;;;;5106511;28;24131;-55
2022/07/11 06:51:39;;;;;;;;;;;26.00;94.80;;;;;;5106384;28;19926;-56
2022/07/11 06:54:05;;;;;;;;;;;26.00;94.80;;;;;;5106032;28;24073;-57
2022/07/11 06:56:31;;;;;;;;;;;26.00;94.80;;;;;;5106804;28;19904;-60
2022/07/11 06:58:58;;;;;;;;;;;26.00;94.70;;;;;;5105914;28;20073;-55
2022/07/11 07:01:24;;;;;;;;;;;26.00;94.80;;;;;;5106104;28;24056;-54
2022/07/11 07:03:51;;;;;;;;;;;26.00;94.70;;;;;;5105771;28;19911;-54
2022/07/11 07:06:17;;;;;;;;;;;26.00;94.70;;;;;;5105452;28;19908;-53
2022/07/11 07:08:43;;;;;;;;;;;26.00;94.60;;;;;;5105871;28;19904;-56
2022/07/11 07:11:09;;;;;;;;;;;26.00;94.70;;;;;;5105360;28;24109;-54
2022/07/11 07:13:35;;;;;;;;;;;25.90;94.60;;;;;;5106187;28;24086;-54
2022/07/11 07:16:02;;;;;;;;;;;25.90;94.60;;;;;;5105736;28;24080;-53
2022/07/11 07:18:28;;;;;;;;;;;25.90;94.60;;;;;;5105487;28;24051;-51
2022/07/11 07:20:54;;;;;;;;;;;25.90;94.70;;;;;;5087162;28;25087;-54
2022/07/11 07:23:20;;;;;;;;;;;25.90;94.60;;;;;;5105447;28;24110;-54
2022/07/11 07:25:46;;;;;;;;;;;25.90;94.60;;;;;;5105718;28;19911;-53
2022/07/11 07:28:12;;;;;;;;;;;25.90;94.50;;;;;;5105345;28;25086;-53
2022/07/11 07:30:38;;;;;;;;;;;25.90;94.60;;;;;;5105104;28;19946;-53
2022/07/11 07:33:05;;;;;;;;;;;25.90;94.60;;;;;;5105320;28;19974;-54
2022/07/11 07:35:31;;;;;;;;;;;25.90;94.60;;;;;;5105208;28;19927;-56
2022/07/11 07:37:57;;;;;;;;;;;25.90;94.60;;;;;;5105169;28;19932;-54
2022/07/11 07:40:23;;;;;;;;;;;25.90;94.60;;;;;;5105782;28;19916;-55
2022/07/11 07:42:49;;;;;;;;;;;25.90;94.60;;;;;;5105028;28;20092;-56
2022/07/11 07:45:15;;;;;;;;;;;25.90;94.60;;;;;;5105381;28;19965;-61
2022/07/11 07:47:41;;;;;;;;;;;25.90;94.50;;;;;;5104925;28;19900;-53
2022/07/11 07:50:08;;;;;;;;;;;25.90;94.50;;;;;;5105304;28;19908;-54
2022/07/11 07:52:34;;;;;;;;;;;25.90;94.60;;;;;;5105128;28;20188;-54
2022/07/11 07:55:00;;;;;;;;;;;25.90;94.60;;;;;;5104788;28;24086;-55
2022/07/11 07:57:26;;;;;;;;;;;25.90;94.60;;;;;;5104308;28;24083;-55
2022/07/11 08:01:34;;;;;;;;;;;25.90;94.70;;;;;;5105338;28;19949;-59
2022/07/11 08:02:38;;;;;;;;;;;25.90;94.70;;;;;;5104107;28;24056;-54
2022/07/11 08:05:04;;;;;;;;;;;25.90;94.60;;;;;;5105106;28;19930;-57
2022/07/11 08:07:30;;;;;;;;;;;25.90;94.70;;;;;;5104714;28;25105;-54
2022/07/11 08:09:57;;;;;;;;;;;25.90;94.80;;;;;;5105207;28;19975;-54
2022/07/11 08:12:23;;;;;;;;;;;25.90;94.80;;;;;;5104246;28;19941;-54
2022/07/11 08:14:49;;;;;;;;;;;25.90;94.80;;;;;;5104847;28;24068;-54
2022/07/11 08:17:15;;;;;;;;;;;25.90;94.70;;;;;;5104645;28;24070;-57
2022/07/11 08:19:41;;;;;;;;;;;25.90;94.70;;;;;;5104095;28;19919;-55
2022/07/11 08:22:07;;;;;;;;;;;25.90;94.70;;;;;;5104277;28;20133;-55
2022/07/11 08:24:33;;;;;;;;;;;25.90;94.70;;;;;;5104843;28;19914;-55
2022/07/11 08:26:59;;;;;;;;;;;25.90;94.70;;;;;;5104200;28;24058;-57
2022/07/11 08:29:25;;;;;;;;;;;25.90;94.60;;;;;;5104885;28;19946;-54
2022/07/11 08:31:52;;;;;;;;;;;25.80;94.60;;;;;;5104414;28;24059;-59
2022/07/11 08:34:18;;;;;;;;;;;25.90;94.70;;;;;;5104170;28;20197;-54
2022/07/11 08:36:44;;;;;;;;;;;25.90;94.70;;;;;;5104511;28;19906;-54
2022/07/11 08:39:10;;;;;;;;;;;25.90;94.70;;;;;;5104392;28;25082;-59
2022/07/11 08:41:40;;;;;;;;;;;25.90;94.70;;;;;;5104252;28;20181;-56
2022/07/11 08:44:06;;;;;;;;;;;25.90;94.80;;;;;;5104267;28;24061;-53
2022/07/11 08:46:32;;;;;;;;;;;25.80;94.80;;;;;;5104638;28;19900;-54
2022/07/11 08:48:59;;;;;;;;;;;25.80;94.90;;;;;;5104352;28;19908;-56
2022/07/11 08:51:27;;;;;;;;;;;25.80;94.80;;;;;;5104266;28;19965;-55
2022/07/11 08:53:53;;;;;;;;;;;25.80;94.90;;;;;;5104448;28;19971;-54
2022/07/11 08:56:21;;;;;;;;;;;25.80;95.00;;;;;;5103922;28;19900;-54
2022/07/11 08:58:48;;;;;;;;;;;25.80;94.90;;;;;;5103611;28;20240;-57
2022/07/11 09:01:17;;;;;;;;;;;25.80;94.90;;;;;;5104036;28;19904;-54
2022/07/11 09:03:44;;;;;;;;;;;25.80;95.00;;;;;;5103294;28;24071;-57
2022/07/11 09:06:11;;;;;;;;;;;25.80;95.00;;;;;;5103492;28;20214;-54
2022/07/11 09:08:37;;;;;;;;;;;25.80;95.00;;;;;;5103930;28;19908;-56
2022/07/11 09:11:06;;;;;;;;;;;25.80;94.90;;;;;;5103515;28;20239;-53
2022/07/11 09:13:32;;;;;;;;;;;25.80;94.80;;;;;;5103949;28;19982;-57
2022/07/11 09:16:03;;;;;;;;;;;25.80;94.70;;;;;;5103708;28;19900;-55
2022/07/11 09:18:41;;;;;;;;;;;25.80;94.70;;;;;;5103429;28;24122;-54
2022/07/11 09:26:43;;;;;;;;;;;25.70;94.60;;;;;;5103827;28;19983;-54
2022/07/11 09:29:10;;;;;;;;;;;25.70;94.50;;;;;;5104109;28;20269;-57
2022/07/11 09:31:37;;;;;;;;;;;25.70;94.40;;;;;;5103557;28;19900;-54
2022/07/11 09:34:04;;;;;;;;;;;25.70;94.60;;;;;;5103718;28;19908;-57
2022/07/11 09:36:40;;;;;;;;;;;25.70;94.40;;;;;;5103536;28;24066;-54
2022/07/11 09:39:08;;;;;;;;;;;25.70;94.20;;;;;;5103237;28;24076;-57
2022/07/11 09:41:35;;;;;;;;;;;25.70;94.20;;;;;;5103738;28;19934;-61
2022/07/11 09:44:09;;;;;;;;;;;25.70;94.20;;;;;;5103164;28;24062;-56
2022/07/11 09:46:36;;;;;;;;;;;25.70;94.10;;;;;;5103566;28;19942;-55
2022/07/11 09:49:02;;;;;;;;;;;25.70;94.10;;;;;;5103356;28;19915;-56
2022/07/11 09:51:28;;;;;;;;;;;25.70;94.10;;;;;;5103259;28;19900;-55
2022/07/11 09:53:56;;;;;;;;;;;25.70;94.00;;;;;;5103444;28;19912;-54
2022/07/11 09:56:26;;;;;;;;;;;25.70;93.90;;;;;;5103236;28;19900;-54
2022/07/11 09:58:59;;;;;;;;;;;25.70;93.90;;;;;;5103297;28;19908;-55
2022/07/11 10:01:26;;;;;;;;;;;25.70;93.70;;;;;;5103537;28;19908;-53
2022/07/11 10:03:52;;;;;;;;;;;25.70;93.80;;;;;;5103279;28;20100;-62
2022/07/11 10:06:18;;;;;;;;;;;25.70;93.70;;;;;;5103385;28;19900;-54
2022/07/11 10:08:45;;;;;;;;;;;25.70;93.70;;;;;;5103411;28;24054;-54
2022/07/11 10:11:11;;;;;;;;;;;25.70;93.90;;;;;;5103500;28;19900;-56
2022/07/11 10:13:38;;;;;;;;;;;25.70;93.70;;;;;;5103728;28;19915;-57
2022/07/11 10:16:08;;;;;;;;;;;25.70;93.70;;;;;;5103755;28;20036;-54
2022/07/11 10:18:42;;;;;;;;;;;25.70;93.80;;;;;;5105392;28;20096;-54
2022/07/11 10:21:12;;;;;;;;;;;25.70;93.90;;;;;;5107224;28;24074;-54
2022/07/11 10:23:56;;;;;;;;;;;25.70;94.00;;;;;;5107848;28;19915;-56
2022/07/11 10:26:32;;;;;;;;;;;25.70;94.00;;;;;;5106750;28;19922;-54
2022/07/11 10:29:06;;;;;;;;;;;25.70;94.10;;;;;;5105037;28;24056;-56
2022/07/11 10:31:33;;;;;;;;;;;25.70;94.20;;;;;;5105146;28;19907;-57
2022/07/11 10:34:00;;;;;;;;;;;25.70;94.30;;;;;;5105323;28;20080;-56
2022/07/11 10:36:27;;;;;;;;;;;25.60;94.30;;;;;;5104808;28;24106;-59
2022/07/11 10:39:11;;;;;;;;;;;25.60;94.40;;;;;;5105630;28;19971;-54
2022/07/11 10:41:38;;;;;;;;;;;25.70;94.50;;;;;;5105257;28;24065;-55
2022/07/11 10:44:04;;;;;;;;;;;25.60;94.50;;;;;;5107108;28;19907;-53
2022/07/11 10:46:30;;;;;;;;;;;25.60;94.50;;;;;;5106937;28;19900;-52
2022/07/11 10:48:59;;;;;;;;;;;25.60;94.60;;;;;;5106827;28;20184;-54
2022/07/11 10:51:34;;;;;;;;;;;25.60;94.60;;;;;;5106057;28;20242;-55
2022/07/11 10:54:32;;;;;;;;;;;25.60;94.70;;;;;;5106568;28;19908;-57
2022/07/11 10:56:58;;;;;;;;;;;25.60;94.80;;;;;;5061978;28;19900;-54
2022/07/11 10:59:25;;;;;;;;;;;25.60;94.90;;;;;;5106912;28;19927;-54
2022/07/11 11:02:03;;;;;;;;;;;25.70;94.90;;;;;;5106505;28;24103;-57
2022/07/11 11:04:49;;;;;;;;;;;25.60;94.90;;;;;;5106530;28;19970;-56
2022/07/11 11:07:36;;;;;;;;;;;25.60;95.00;;;;;;5106167;28;24068;-57
2022/07/11 11:10:22;;;;;;;;;;;25.60;95.00;;;;;;5106559;28;19908;-57
2022/07/11 11:13:03;;;;;;;;;;;25.60;95.00;;;;;;5092392;28;19990;-58
2022/07/11 11:15:49;;;;;;;;;;;25.60;95.00;;;;;;5106477;28;24081;-54
2022/07/11 11:18:25;;;;;;;;;;;25.60;95.00;;;;;;5105775;28;19906;-54
2022/07/11 11:21:04;;;;;;;;;;;25.60;95.00;;;;;;5106293;28;19954;-55
2022/07/11 11:23:32;;;;;;;;;;;25.60;95.00;;;;;;5106627;28;20079;-59
2022/07/11 11:26:06;;;;;;;;;;;25.60;95.00;;;;;;5105812;28;19904;-56
2022/07/11 11:28:32;;;;;;;;;;;25.60;95.00;;;;;;5106334;28;19931;-54
2022/07/11 11:31:00;;;;;;;;;;;25.60;95.00;;;;;;5105269;28;24065;-53
2022/07/11 11:33:28;;;;;;;;;;;25.60;95.10;;;;;;5106452;28;19900;-57
2022/07/11 11:36:00;;;;;;;;;;;25.60;95.20;;;;;;5106137;28;20111;-56
2022/07/11 11:38:26;;;;;;;;;;;25.60;95.20;;;;;;5105451;28;24088;-55
2022/07/11 11:40:53;;;;;;;;;;;25.60;95.30;;;;;;5106393;28;20249;-53
2022/07/11 11:43:22;;;;;;;;;;;25.60;95.30;;;;;;5105571;28;19906;-58
2022/07/11 11:45:51;;;;;;;;;;;25.60;95.30;;;;;;5105065;28;24076;-56
2022/07/11 11:48:33;;;;;;;;;;;25.60;95.30;;;;;;5104795;28;19943;-59
2022/07/11 11:51:02;;;;;;;;;;;25.60;95.30;;;;;;5104911;28;19931;-56
2022/07/11 11:53:32;;;;;;;;;;;25.60;95.30;;;;;;5105183;28;24065;-64
2022/07/11 11:55:58;;;;;;;;;;;25.60;95.30;;;;;;5087469;28;24092;-54
2022/07/11 11:58:25;;;;;;;;;;;25.70;95.30;;;;;;5105056;28;24079;-53
2022/07/11 12:00:54;;;;;;;;;;;25.60;95.30;;;;;;5105077;28;20207;-54
2022/07/11 12:03:21;;;;;;;;;;;25.60;95.20;;;;;;5105063;28;19900;-54
2022/07/11 12:05:56;;;;;;;;;;;25.60;95.20;;;;;;5104872;28;19910;-62
2022/07/11 12:08:26;;;;;;;;;;;25.70;95.20;;;;;;5105341;28;19945;-54
2022/07/11 12:10:53;;;;;;;;;;;25.70;95.20;;;;;;5104997;28;19942;-54
2022/07/11 12:13:19;;;;;;;;;;;25.70;95.20;;;;;;5104333;28;24083;-56
2022/07/11 12:18:30;;;;;;;;;;;25.70;95.10;;;;;;5104798;28;20092;-57
2022/07/11 12:20:56;;;;;;;;;;;25.60;95.00;;;;;;5104829;28;19939;-55
2022/07/11 12:23:24;;;;;;;;;;;25.60;94.90;;;;;;5104744;28;20184;-56
2022/07/11 12:25:50;;;;;;;;;;;25.60;94.90;;;;;;5104308;28;24063;-53
2022/07/11 12:28:17;;;;;;;;;;;25.60;94.90;;;;;;5104714;28;19927;-54
2022/07/11 12:30:43;;;;;;;;;;;25.60;95.00;;;;;;5104541;28;24095;-54
2022/07/11 12:33:11;;;;;;;;;;;25.60;95.00;;;;;;5104584;28;20186;-56
2022/07/11 12:35:52;;;;;;;;;;;25.50;95.00;;;;;;5104570;28;25098;-58
2022/07/11 12:38:19;;;;;;;;;;;25.50;95.00;;;;;;5104453;28;19950;-53
2022/07/11 12:41:17;;;;;;;;;;;25.50;95.10;;;;;;5104165;28;20226;-56
2022/07/11 12:46:32;;;;;;;;;;;25.50;95.30;;;;;;5104918;28;24119;-56
2022/07/11 12:49:03;;;;;;;;;;;25.50;95.30;;;;;;5104440;28;20013;-57
2022/07/11 12:51:34;;;;;;;;;;;25.50;95.40;;;;;;5104277;28;20185;-62
2022/07/11 12:54:01;;;;;;;;;;;25.50;95.50;;;;;;5104672;28;20092;-55
2022/07/11 12:56:27;;;;;;;;;;;25.40;95.50;;;;;;5104765;28;19903;-57
2022/07/11 12:58:53;;;;;;;;;;;25.40;95.50;;;;;;5104551;28;19908;-58
2022/07/11 13:01:20;;;;;;;;;;;25.50;95.50;;;;;;5104625;28;25112;-56
2022/07/11 13:03:46;;;;;;;;;;;25.40;95.60;;;;;;5110857;28;19967;-53
2022/07/11 13:06:12;;;;;;;;;;;25.40;95.60;;;;;;5124210;28;20089;-53
2022/07/11 13:08:47;;;;;;;;;;;25.40;95.70;;;;;;5124751;28;24077;-54
2022/07/11 13:11:15;;;;;;;;;;;25.40;95.80;;;;;;5124438;28;20024;-55
2022/07/11 13:13:46;;;;;;;;;;;25.40;95.80;;;;;;5124280;28;19908;-53
2022/07/11 13:16:13;;;;;;;;;;;25.40;96.00;;;;;;5124505;28;20004;-55
2022/07/11 13:18:39;;;;;;;;;;;25.40;96.00;;;;;;5124796;28;19923;-54
2022/07/11 13:21:07;;;;;;;;;;;25.40;95.90;;;;;;5124332;28;20238;-53
2022/07/11 13:23:34;;;;;;;;;;;25.40;95.90;;;;;;5124573;28;19915;-60
2022/07/11 13:26:00;;;;;;;;;;;25.40;95.80;;;;;;5124500;28;20200;-53
2022/07/11 13:28:27;;;;;;;;;;;25.40;96.00;;;;;;5124483;28;19962;-54
2022/07/11 13:30:53;;;;;;;;;;;25.40;96.10;;;;;;5124327;28;19899;-54
2022/07/11 13:33:20;;;;;;;;;;;25.40;96.10;;;;;;5124331;28;19900;-54
2022/07/11 13:35:47;;;;;;;;;;;25.50;96.00;;;;;;5124343;28;20192;-53
2022/07/11 13:38:14;;;;;;;;;;;25.40;96.00;;;;;;5124318;28;19904;-53
2022/07/11 13:40:40;;;;;;;;;;;25.40;96.00;;;;;;5124000;28;19911;-54
2022/07/11 13:43:06;;;;;;;;;;;25.40;96.10;;;;;;5124450;28;24080;-53
2022/07/11 13:45:32;;;;;;;;;;;25.50;96.10;;;;;;5124872;28;19915;-62
2022/07/11 13:47:58;;;;;;;;;;;25.40;96.10;;;;;;5124250;28;19908;-53
2022/07/11 13:50:25;;;;;;;;;;;25.40;96.20;;;;;;5124261;28;24081;-54
2022/07/11 13:52:51;;;;;;;;;;;25.40;96.20;;;;;;5125245;28;19904;-55
2022/07/11 13:55:18;;;;;;;;;;;25.40;96.20;;;;;;5128331;28;19935;-53
2022/07/11 13:57:44;;;;;;;;;;;25.40;96.30;;;;;;5127927;28;20371;-57
2022/07/11 14:00:11;;;;;;;;;;;25.40;96.40;;;;;;5128061;28;19921;-54
2022/07/11 14:02:37;;;;;;;;;;;25.40;96.40;;;;;;5127830;28;19903;-54
2022/07/11 14:05:03;;;;;;;;;;;25.40;96.50;;;;;;5127871;28;20095;-57
2022/07/11 14:07:30;;;;;;;;;;;25.40;96.60;;;;;;5127857;28;20363;-54
2022/07/11 14:09:56;;;;;;;;;;;25.40;96.60;;;;;;5127969;28;24062;-53
2022/07/11 14:12:22;;;;;;;;;;;25.40;96.60;;;;;;5127867;28;19904;-53
2022/07/11 14:14:48;;;;;;;;;;;25.40;96.70;;;;;;5128266;28;20164;-56
2022/07/11 14:17:14;;;;;;;;;;;25.40;96.80;;;;;;5128014;28;19904;-57
2022/07/11 14:19:40;;;;;;;;;;;25.40;96.80;;;;;;5128018;28;25117;-54
2022/07/11 14:22:07;;;;;;;;;;;25.40;96.90;;;;;;5127660;28;24093;-53
2022/07/11 14:24:33;;;;;;;;;;;25.40;96.80;;;;;;5127767;28;19961;-53
2022/07/11 14:26:59;;;;;;;;;;;25.40;96.80;;;;;;5127055;28;19903;-53
2022/07/11 14:29:26;;;;;;;;;;;25.40;96.80;;;;;;5127241;28;19911;-54
2022/07/11 14:31:53;;;;;;;;;;;25.40;96.80;;;;;;5127302;28;19904;-62
2022/07/11 14:34:23;;;;;;;;;;;25.40;96.80;;;;;;5127179;28;19918;-56